Time;durP1;ratioP1;P1;durP2;ratioP2;P2;SDS_P1;SDS_P2;PMS_P1;PMS_P2;Temp;Humidity;BMP_temperature;BMP_pressure;BME280_temperature;BME280_humidity;BME280_pressure;Samples;Min_cycle;Max_cycle;Signal;HPM_P1;HPM_P2
2021/04/24 00:02:23;;;;;;;5.67;3.50;;;;;;;4.78;100.00;99961.41;1777221;80;21145;-77
2021/04/24 00:04:50;;;;;;;7.03;3.67;;;;;;;4.77;100.00;99969.08;1772758;80;21565;-77
2021/04/24 00:07:19;;;;;;;4.70;3.67;;;;;;;4.78;100.00;99972.13;1772605;81;21185;-76
2021/04/24 00:09:48;;;;;;;5.00;3.77;;;;;;;4.77;100.00;99972.25;1772636;81;21094;-77
2021/04/24 00:12:16;;;;;;;6.17;3.53;;;;;;;4.78;100.00;99974.80;1772528;81;21145;-77
2021/04/24 00:14:44;;;;;;;8.27;4.00;;;;;;;4.81;100.00;99983.05;1772133;80;21145;-76
2021/04/24 00:17:12;;;;;;;7.60;3.93;;;;;;;4.81;100.00;99983.88;1772329;81;21109;-76
2021/04/24 00:19:41;;;;;;;7.17;4.20;;;;;;;4.79;100.00;99983.17;1771976;80;21130;-77
2021/04/24 00:22:11;;;;;;;5.97;3.70;;;;;;;4.78;100.00;99981.97;1772237;81;21582;-77
2021/04/24 00:24:39;;;;;;;8.13;3.93;;;;;;;4.74;100.00;99982.73;1772435;81;21512;-76
2021/04/24 00:27:07;;;;;;;9.10;4.37;;;;;;;4.72;100.00;99978.00;1772091;81;21153;-76
2021/04/24 00:29:36;;;;;;;7.57;4.00;;;;;;;4.70;100.00;99975.95;1772191;81;21315;-76
2021/04/24 00:32:04;;;;;;;6.47;3.83;;;;;;;4.67;100.00;99974.88;1772111;81;21121;-76
2021/04/24 00:34:33;;;;;;;4.80;3.57;;;;;;;4.64;100.00;99977.34;1772363;81;21113;-77
2021/04/24 00:37:00;;;;;;;6.10;3.90;;;;;;;4.60;100.00;99976.40;1772073;81;21298;-76
2021/04/24 00:39:28;;;;;;;8.20;3.97;;;;;;;4.54;100.00;99977.29;1772260;80;21650;-76
2021/04/24 00:41:56;;;;;;;5.20;3.50;;;;;;;4.48;100.00;99979.64;1771971;81;21157;-76
2021/04/24 00:44:24;;;;;;;6.23;3.77;;;;;;;4.42;100.00;99970.33;1772315;81;21126;-76
2021/04/24 00:46:53;;;;;;;7.87;4.10;;;;;;;4.38;100.00;99987.14;1772098;80;21558;-75
2021/04/24 00:49:21;;;;;;;8.37;4.43;;;;;;;4.36;100.00;99989.61;1771986;81;21572;-75
2021/04/24 00:51:49;;;;;;;5.77;3.80;;;;;;;4.32;100.00;99992.17;1772078;81;21133;-75
2021/04/24 00:54:17;;;;;;;5.73;3.90;;;;;;;4.27;100.00;99995.27;1771997;80;21587;-75
2021/04/24 00:56:45;;;;;;;6.07;3.70;;;;;;;4.25;100.00;99997.23;1772091;81;21110;-75
2021/04/24 00:59:13;;;;;;;7.27;3.70;;;;;;;4.23;100.00;99995.14;1750609;81;21122;-76
2021/04/24 01:01:41;;;;;;;4.00;3.53;;;;;;;4.22;100.00;99995.30;1771922;80;21698;-76
2021/04/24 01:04:09;;;;;;;6.27;3.83;;;;;;;4.19;100.00;99994.56;1772061;80;21114;-75
2021/04/24 01:06:38;;;;;;;6.83;3.93;;;;;;;4.18;100.00;99996.05;1772105;81;21138;-75
2021/04/24 01:09:06;;;;;;;5.33;3.73;;;;;;;4.14;100.00;99992.80;1772359;81;21272;-76
2021/04/24 01:11:33;;;;;;;6.00;3.40;;;;;;;4.13;100.00;99991.58;1771941;81;21141;-75
2021/04/24 01:14:02;;;;;;;5.50;3.60;;;;;;;4.10;100.00;99989.16;1772071;80;21607;-75
2021/04/24 01:16:30;;;;;;;7.20;4.20;;;;;;;4.07;100.00;99989.41;1772025;81;21165;-75
2021/04/24 01:18:57;;;;;;;5.93;4.07;;;;;;;4.07;100.00;99994.77;1772227;81;21556;-75
2021/04/24 01:21:25;;;;;;;7.60;3.97;;;;;;;4.05;100.00;99996.73;1772154;81;21145;-76
2021/04/24 01:23:54;;;;;;;10.97;4.80;;;;;;;4.02;100.00;99999.19;1771904;81;21137;-76
2021/04/24 01:26:22;;;;;;;17.63;6.27;;;;;;;4.01;100.00;100001.49;1772100;81;21746;-76
2021/04/24 01:28:50;;;;;;;14.13;5.37;;;;;;;3.99;100.00;100002.12;1772230;81;21140;-76
2021/04/24 01:31:18;;;;;;;13.87;5.77;;;;;;;3.98;100.00;100012.45;1750904;81;21137;-76
2021/04/24 01:33:46;;;;;;;10.67;5.13;;;;;;;3.94;100.00;100011.02;1772025;81;21174;-76
2021/04/24 01:36:14;;;;;;;9.27;5.03;;;;;;;3.90;100.00;100012.26;1772282;81;21141;-74
2021/04/24 01:38:42;;;;;;;9.33;5.03;;;;;;;3.88;100.00;100014.19;1771921;81;21125;-75
2021/04/24 01:41:10;;;;;;;11.13;5.27;;;;;;;3.87;100.00;100020.03;1772071;80;21157;-75
2021/04/24 01:43:38;;;;;;;15.20;6.30;;;;;;;3.85;100.00;100013.97;1772220;80;21106;-74
2021/04/24 01:46:05;;;;;;;16.73;7.73;;;;;;;3.84;100.00;100012.26;1772174;81;21118;-75
2021/04/24 01:48:33;;;;;;;15.33;7.00;;;;;;;3.83;100.00;100010.58;1772181;80;21150;-75
2021/04/24 01:51:02;;;;;;;20.80;10.53;;;;;;;3.81;100.00;100007.19;1772074;81;21263;-75
2021/04/24 01:53:30;;;;;;;26.10;12.90;;;;;;;3.80;100.00;100009.49;1771974;81;21287;-75
2021/04/24 01:56:00;;;;;;;22.40;11.47;;;;;;;3.78;100.00;100010.11;1772076;81;21584;-75
2021/04/24 01:58:28;;;;;;;26.53;13.33;;;;;;;3.77;100.00;100013.28;1771923;81;21133;-75
2021/04/24 02:00:59;;;;;;;31.03;15.77;;;;;;;3.76;100.00;100020.09;1772205;81;21540;-75
2021/04/24 02:03:28;;;;;;;32.93;16.60;;;;;;;3.74;100.00;100023.39;1784659;80;21141;-75
2021/04/24 02:05:56;;;;;;;29.37;16.10;;;;;;;3.73;100.00;100024.36;1786457;80;21164;-76
2021/04/24 02:08:27;;;;;;;29.40;15.53;;;;;;;3.68;100.00;100020.72;1786585;80;21555;-75
2021/04/24 02:10:55;;;;;;;24.10;13.83;;;;;;;3.66;100.00;100032.03;1782575;80;21149;-75
2021/04/24 02:13:27;;;;;;;25.80;13.43;;;;;;;3.65;100.00;100031.69;1786715;80;21535;-75
2021/04/24 02:15:56;;;;;;;23.45;12.35;;;;;;;3.64;100.00;100035.82;1691889;85;21196;-75
2021/04/24 02:18:26;;;;;;;21.90;11.73;;;;;;;3.62;100.00;100035.95;1691559;83;21165;-75
2021/04/24 02:20:54;;;;;;;21.10;10.63;;;;;;;3.61;100.00;100036.91;1691666;85;21180;-74
2021/04/24 02:23:21;;;;;;;22.63;10.37;;;;;;;3.59;100.00;100035.72;1691857;85;21841;-75
2021/04/24 02:25:49;;;;;;;19.13;9.27;;;;;;;3.59;100.00;100034.85;1691814;85;21161;-75
2021/04/24 02:28:17;;;;;;;17.33;9.03;;;;;;;3.57;100.00;100038.14;1691783;85;21164;-75
2021/04/24 02:30:45;;;;;;;15.73;7.60;;;;;;;3.55;100.00;100042.77;1691844;85;21579;-75
2021/04/24 02:33:13;;;;;;;16.03;7.80;;;;;;;3.54;100.00;100042.40;1691700;85;21177;-75
2021/04/24 02:35:58;;;;;;;16.80;7.73;;;;;;;3.53;100.00;100046.91;1691696;85;21262;-75
2021/04/24 02:38:31;;;;;;;13.03;6.67;;;;;;;3.52;100.00;100044.35;1691859;85;21330;-74
2021/04/24 02:41:03;;;;;;;13.53;6.67;;;;;;;3.52;100.00;100047.03;1692030;85;21200;-73
2021/04/24 02:43:32;;;;;;;13.83;7.07;;;;;;;3.49;100.00;100046.80;1691883;85;21634;-75
2021/04/24 02:46:01;;;;;;;12.50;6.50;;;;;;;3.48;100.00;100066.98;1691747;85;21168;-75
2021/04/24 02:48:29;;;;;;;11.07;5.90;;;;;;;3.48;100.00;100069.16;1691818;85;21161;-75
2021/04/24 02:50:57;;;;;;;11.17;5.93;;;;;;;3.49;100.00;100068.19;1691880;85;21192;-75
2021/04/24 02:53:24;;;;;;;11.20;6.23;;;;;;;3.51;100.00;100068.91;1691779;85;21615;-75
2021/04/24 02:55:52;;;;;;;14.37;6.73;;;;;;;3.51;100.00;100070.75;1691666;85;21164;-74
2021/04/24 02:58:20;;;;;;;12.03;6.67;;;;;;;3.51;100.00;100073.42;1691727;85;21220;-74
2021/04/24 03:00:48;;;;;;;12.50;6.50;;;;;;;3.51;100.00;100072.08;1691754;85;21173;-75
2021/04/24 03:03:15;;;;;;;11.37;6.00;;;;;;;3.50;100.00;100080.56;1686411;85;21694;-75
2021/04/24 03:05:43;;;;;;;13.63;6.90;;;;;;;3.51;100.00;100089.46;1684165;85;21173;-75
2021/04/24 03:08:11;;;;;;;10.70;6.50;;;;;;;3.50;100.00;100092.59;1684142;85;21204;-75
2021/04/24 03:10:41;;;;;;;15.87;7.10;;;;;;;3.51;100.00;100101.48;1684140;85;21205;-75
2021/04/24 03:13:09;;;;;;;13.10;7.23;;;;;;;3.52;100.00;100095.99;1751094;80;21145;-76
2021/04/24 03:15:39;;;;;;;13.70;6.93;;;;;;;3.54;100.00;100095.88;1780478;80;21125;-75
2021/04/24 03:18:07;;;;;;;13.87;7.23;;;;;;;3.56;100.00;100101.47;1780490;80;21118;-75
2021/04/24 03:20:35;;;;;;;11.73;6.93;;;;;;;3.56;100.00;100094.79;1780543;80;21563;-76
2021/04/24 03:23:04;;;;;;;16.57;7.87;;;;;;;3.56;100.00;100090.78;1780359;80;21305;-76
2021/04/24 03:25:32;;;;;;;13.37;7.20;;;;;;;3.56;100.00;100100.60;1780511;80;21133;-76
2021/04/24 03:27:59;;;;;;;14.30;7.40;;;;;;;3.55;100.00;100098.42;1780458;80;21082;-76
2021/04/24 03:30:27;;;;;;;13.17;6.93;;;;;;;3.56;100.00;100100.60;1780414;80;21121;-75
2021/04/24 03:32:55;;;;;;;13.60;7.13;;;;;;;3.57;100.00;100104.98;1780462;80;21118;-75
2021/04/24 03:35:23;;;;;;;14.07;7.30;;;;;;;3.58;100.00;100110.22;1780332;80;21287;-75
2021/04/24 03:37:51;;;;;;;13.77;7.10;;;;;;;3.59;100.00;100108.38;1780429;80;21121;-75
2021/04/24 03:40:19;;;;;;;13.47;6.97;;;;;;;3.61;100.00;100103.75;1780449;80;21590;-76
2021/04/24 03:42:47;;;;;;;13.10;6.93;;;;;;;3.63;100.00;100112.99;1780674;80;21129;-76
2021/04/24 03:45:19;;;;;;;16.83;8.03;;;;;;;3.64;100.00;100112.03;1780597;80;21128;-76
2021/04/24 03:47:52;;;;;;;13.95;7.60;;;;;;;3.67;100.00;100115.30;1780543;80;21141;-75
2021/04/24 03:50:21;;;;;;;15.37;7.70;;;;;;;3.69;100.00;100117.36;1780596;80;21276;-75
2021/04/24 03:52:49;;;;;;;16.20;7.97;;;;;;;3.72;100.00;100114.45;1780701;80;21141;-75
2021/04/24 03:55:18;;;;;;;15.30;7.60;;;;;;;3.76;100.00;100117.72;1780706;80;21117;-75
2021/04/24 03:57:47;;;;;;;13.70;7.53;;;;;;;3.78;100.00;100117.94;1780618;80;21615;-75
2021/04/24 04:00:18;;;;;;;14.97;8.20;;;;;;;3.81;100.00;100119.53;1780781;80;21133;-76
2021/04/24 04:02:57;;;;;;;16.03;7.67;;;;;;;3.84;100.00;100128.63;1777443;80;21275;-76
2021/04/24 04:05:28;;;;;;;15.53;7.73;;;;;;;3.87;100.00;100132.39;1726395;82;21124;-76
2021/04/24 04:07:56;;;;;;;16.97;8.63;;;;;;;3.91;100.00;100121.82;1691484;85;21161;-76
2021/04/24 04:10:23;;;;;;;16.67;8.07;;;;;;;3.95;100.00;100122.42;1726376;83;21151;-76
2021/04/24 04:12:54;;;;;;;15.40;7.73;;;;;;;4.00;100.00;100128.21;1691464;85;21204;-77
2021/04/24 04:15:23;;;;;;;18.90;8.63;;;;;;;4.04;100.00;100132.82;1726194;83;21150;-76
2021/04/24 04:18:10;;;;;;;20.40;9.43;;;;;;;4.11;100.00;100130.02;1691757;85;21176;-76
2021/04/24 04:20:43;;;;;;;22.07;10.20;;;;;;;4.17;100.00;100133.52;1726359;83;21164;-76
2021/04/24 04:23:36;;;;;;;21.62;11.08;;;;;;;4.29;100.00;100133.83;1825229;77;28135;-76
2021/04/24 04:26:04;;;;;;;22.27;10.37;;;;;;;4.35;100.00;100137.81;1789453;80;21101;-75
2021/04/24 04:28:32;;;;;;;27.03;10.57;;;;;;;4.47;100.00;100139.96;1785103;79;21160;-75
2021/04/24 04:31:00;;;;;;;21.33;10.03;;;;;;;4.55;100.00;100141.02;1797776;78;21210;-75
2021/04/24 04:33:28;;;;;;;24.33;10.57;;;;;;;4.61;100.00;100146.34;1806769;78;21113;-75
2021/04/24 04:36:00;;;;;;;23.77;10.50;;;;;;;4.66;100.00;100150.81;1807274;78;21661;-74
2021/04/24 04:38:25;;;;;;;21.43;10.50;;;;;;;4.76;100.00;100152.20;1793092;78;21193;-75
2021/04/24 04:40:53;;;;;;;25.87;10.97;;;;;;;4.81;100.00;100151.83;1797080;78;21147;-76
2021/04/24 04:43:20;;;;;;;24.47;11.47;;;;;;;4.88;100.00;100151.66;1801520;78;21155;-76
2021/04/24 04:45:48;;;;;;;23.27;11.10;;;;;;;4.95;100.00;100146.97;1822282;78;21562;-76
2021/04/24 04:48:16;;;;;;;22.00;11.30;;;;;;;5.06;100.00;100153.23;1821995;78;21116;-76
2021/04/24 04:50:44;;;;;;;21.97;11.47;;;;;;;5.17;100.00;100142.45;1817857;78;21613;-75
2021/04/24 04:53:12;;;;;;;25.63;13.47;;;;;;;5.30;100.00;100145.73;1801504;78;21168;-75
2021/04/24 04:55:40;;;;;;;25.33;14.37;;;;;;;5.45;100.00;100144.03;1825257;78;21125;-75
2021/04/24 04:58:09;;;;;;;22.00;12.20;;;;;;;5.58;100.00;100139.76;1790609;80;21600;-80
2021/04/24 05:00:37;;;;;;;22.40;12.83;;;;;;;5.73;100.00;100140.25;1773624;80;21132;-80
2021/04/24 05:03:05;;;;;;;62.20;46.40;;;;;;;5.88;100.00;100137.53;1808161;78;21618;-79
2021/04/24 05:05:33;;;;;;;166.27;118.87;;;;;;;6.01;100.00;100128.73;1808889;78;21183;-77
2021/04/24 05:08:02;;;;;;;75.33;51.40;;;;;;;6.17;100.00;100134.91;1780911;80;21578;-79
2021/04/24 05:10:30;;;;;;;40.57;28.10;;;;;;;6.35;100.00;100128.83;1818519;78;21590;-77
2021/04/24 05:12:59;;;;;;;47.17;33.40;;;;;;;6.50;100.00;100133.27;1802613;78;21149;-78
2021/04/24 05:15:29;;;;;;;126.53;86.33;;;;;;;6.64;100.00;100121.60;1804727;78;21144;-77
2021/04/24 05:17:56;;;;;;;58.50;39.90;;;;;;;6.82;100.00;100131.63;1797168;78;21140;-79
2021/04/24 05:20:25;;;;;;;25.23;14.87;;;;;;;7.00;100.00;100124.48;1816166;78;21121;-81
2021/04/24 05:22:54;;;;;;;24.27;15.53;;;;;;;7.17;100.00;100126.92;1819140;78;21178;-80
2021/04/24 05:25:22;;;;;;;100.17;73.80;;;;;;;7.34;100.00;100137.39;1829876;78;21646;-79
2021/04/24 05:27:51;;;;;;;19.53;10.10;;;;;;;7.48;100.00;100134.72;1803414;78;21290;-78
2021/04/24 05:30:20;;;;;;;17.90;9.33;;;;;;;7.66;100.00;100140.14;1757867;79;21712;-78
2021/04/24 05:32:48;;;;;;;19.43;9.03;;;;;;;7.72;100.00;100140.04;1756606;79;21599;-78
2021/04/24 05:35:19;;;;;;;16.13;8.37;;;;;;;7.74;100.00;100138.91;1785338;79;21177;-77
2021/04/24 05:37:47;;;;;;;16.67;8.03;;;;;;;7.77;100.00;100145.34;1722734;82;21232;-79
2021/04/24 05:40:15;;;;;;;12.80;6.33;;;;;;;7.94;100.00;100145.02;1705372;83;21779;-80
2021/04/24 05:42:42;;;;;;;14.13;6.70;;;;;;;8.10;100.00;100140.81;1709311;82;21660;-78
2021/04/24 05:45:13;;;;;;;14.00;6.40;;;;;;;8.14;100.00;100136.32;1720326;82;21207;-78
2021/04/24 05:47:46;;;;;;;14.03;6.20;;;;;;;8.20;100.00;100141.59;1716281;82;21253;-78
2021/04/24 05:50:24;;;;;;;12.87;6.10;;;;;;;8.35;100.00;100142.73;1814699;77;23499;-80
2021/04/24 05:52:53;;;;;;;11.87;5.80;;;;;;;8.46;100.00;100143.53;1731409;81;21116;-79
2021/04/24 05:55:21;;;;;;;14.53;6.03;;;;;;;8.60;100.00;100143.48;1728770;83;21156;-79
2021/04/24 05:57:49;;;;;;;13.60;6.07;;;;;;;8.62;100.00;100145.02;1731487;83;21171;-80
2021/04/24 06:00:19;;;;;;;17.50;7.17;;;;;;;8.67;100.00;100145.91;1731490;83;21724;-79
2021/04/24 06:02:48;;;;;;;10.57;5.57;;;;;;;8.71;100.00;100145.92;1731384;83;21293;-80
2021/04/24 06:05:18;;;;;;;11.87;4.97;;;;;;;8.70;100.00;100148.30;1749985;81;21151;-80
2021/04/24 06:07:46;;;;;;;11.10;5.80;;;;;;;8.72;100.00;100143.59;1765316;81;21148;-79
2021/04/24 06:10:16;;;;;;;15.33;6.87;;;;;;;8.82;100.00;100148.87;1764800;81;21124;-79
2021/04/24 06:12:48;;;;;;;11.33;4.40;;;;;;;8.91;100.00;100150.65;1742550;81;21116;-80
2021/04/24 06:15:18;;;;;;;9.27;4.30;;;;;;;9.04;100.00;100154.27;1730286;83;21333;-77
2021/04/24 06:17:46;;;;;;;7.27;3.77;;;;;;;9.10;100.00;100153.62;1730077;83;21148;-78
2021/04/24 06:20:15;;;;;;;8.53;4.33;;;;;;;9.09;100.00;100152.78;1728320;83;21223;-78
2021/04/24 06:22:43;;;;;;;9.90;4.23;;;;;;;9.17;100.00;100149.80;1725586;83;21160;-79
2021/04/24 06:25:15;;;;;;;11.53;4.30;;;;;;;9.35;100.00;100154.64;1729142;80;21199;-80
2021/04/24 06:27:49;;;;;;;8.47;3.73;;;;;;;9.45;100.00;100151.80;1807508;77;23396;-77
2021/04/24 06:30:20;;;;;;;9.77;4.00;;;;;;;9.41;100.00;100161.24;1776944;80;21660;-78
2021/04/24 06:32:51;;;;;;;11.50;4.13;;;;;;;9.47;100.00;100158.75;1765113;80;21202;-79
2021/04/24 06:35:19;;;;;;;13.77;10.40;;;;;;;9.63;100.00;100155.77;1757462;80;21120;-79
2021/04/24 06:37:47;;;;;;;10.37;5.43;;;;;;;9.78;100.00;100174.40;1769928;80;21152;-76
2021/04/24 06:40:16;;;;;;;9.70;5.40;;;;;;;9.93;100.00;100169.72;1765033;80;21100;-82
2021/04/24 06:42:45;;;;;;;7.90;4.13;;;;;;;10.01;100.00;100169.25;1764571;80;21117;-80
2021/04/24 06:45:15;;;;;;;7.77;4.13;;;;;;;10.01;100.00;100168.41;1759685;80;21136;-79
2021/04/24 06:47:44;;;;;;;6.97;3.57;;;;;;;9.98;100.00;100169.56;1767202;80;21117;-79
2021/04/24 06:50:13;;;;;;;7.07;3.93;;;;;;;9.99;100.00;100169.92;1749964;82;21188;-77
2021/04/24 06:52:41;;;;;;;9.30;4.90;;;;;;;9.94;100.00;100164.67;1729335;82;21172;-78
2021/04/24 06:55:10;;;;;;;9.07;4.03;;;;;;;10.13;100.00;100169.80;1721375;82;21184;-76
2021/04/24 06:57:37;;;;;;;5.83;3.20;;;;;;;10.49;100.00;100169.55;1725575;82;21171;-73
2021/04/24 07:00:07;;;;;;;5.62;2.87;;;;;;;10.74;100.00;100168.20;1717048;82;21554;-72
2021/04/24 07:02:35;;;;;;;6.65;3.60;;;;;;;10.99;100.00;100169.03;1714671;84;21185;-74
2021/04/24 07:05:04;;;;;;;5.78;3.20;;;;;;;11.12;100.00;100170.73;1726849;82;21140;-71
2021/04/24 07:07:32;;;;;;;5.30;3.22;;;;;;;11.17;100.00;100175.12;1743517;82;21176;-74
2021/04/24 07:10:01;;;;;;;6.47;2.92;;;;;;;11.02;100.00;100176.82;1734621;82;21334;-71
2021/04/24 07:12:32;;;;;;;4.17;2.80;;;;;;;10.94;100.00;100178.17;1732839;82;21152;-72
2021/04/24 07:15:03;;;;;;;7.17;2.80;;;;;;;10.99;100.00;100185.27;1737898;82;21162;-74
2021/04/24 07:17:30;;;;;;;6.85;2.65;;;;;;;10.83;100.00;100183.41;1714883;82;21180;-73
2021/04/24 07:19:59;;;;;;;4.53;2.70;;;;;;;10.70;100.00;100182.58;1719558;82;21131;-72
2021/04/24 07:22:26;;;;;;;4.65;2.62;;;;;;;10.81;100.00;100184.09;1719917;82;21196;-72
2021/04/24 07:24:55;;;;;;;5.10;2.60;;;;;;;11.08;100.00;100190.17;1736627;82;21728;-73
2021/04/24 07:27:22;;;;;;;6.60;3.42;;;;;;;11.37;100.00;100190.98;1737562;82;21714;-72
2021/04/24 07:29:50;;;;;;;7.45;3.22;;;;;;;11.52;97.70;100191.94;1752228;81;21268;-70
2021/04/24 07:32:18;;;;;;;7.12;4.00;;;;;;;11.57;91.51;100199.03;1765727;81;21532;-70
2021/04/24 07:34:46;;;;;;;12.73;4.58;;;;;;;11.60;96.00;100193.80;1770051;81;21117;-71
2021/04/24 07:37:14;;;;;;;7.95;4.15;;;;;;;11.70;94.48;100196.30;1750667;81;21125;-71
2021/04/24 07:39:42;;;;;;;42.70;34.08;;;;;;;11.77;95.31;100194.08;1713333;83;21610;-72
2021/04/24 07:42:13;;;;;;;16.45;6.75;;;;;;;11.98;96.92;100201.30;1714879;82;21188;-73
2021/04/24 07:44:41;;;;;;;25.00;15.58;;;;;;;12.18;92.23;100195.77;1749269;82;21226;-74
2021/04/24 07:47:09;;;;;;;54.95;36.28;;;;;;;12.26;92.98;100194.89;1742263;82;21147;-75
2021/04/24 07:49:38;;;;;;;13.53;7.33;;;;;;;12.19;91.26;100204.77;1732133;82;21258;-73
2021/04/24 07:52:08;;;;;;;9.10;5.40;;;;;;;12.00;91.27;100193.31;1737626;82;21072;-73
2021/04/24 07:54:42;;;;;;;10.00;4.40;;;;;;;12.00;89.18;100199.26;1742757;82;21154;-73
2021/04/24 07:57:06;;;;;;;15.25;7.47;;;;;;;12.13;94.82;100187.34;1736023;82;21083;-74
2021/04/24 07:59:34;;;;;;;9.45;6.17;;;;;;;12.26;92.42;100189.47;1740891;82;21548;-74
2021/04/24 08:02:02;;;;;;;5.05;3.58;;;;;;;12.46;93.31;100192.56;1738536;82;21108;-74
2021/04/24 08:04:30;;;;;;;9.83;4.35;;;;;;;12.56;79.78;100182.33;1745099;82;21241;-73
2021/04/24 08:06:58;;;;;;;8.13;3.83;;;;;;;12.37;81.14;100196.35;1743055;82;21253;-76
2021/04/24 08:09:29;;;;;;;7.70;3.90;;;;;;;12.00;86.84;100200.61;1741991;82;21118;-78
2021/04/24 08:12:02;;;;;;;;;;;;;;;11.88;88.19;100199.63;1742191;82;21253;-79
2021/04/24 08:14:29;;;;;;;7.30;3.65;;;;;;;12.00;96.12;100203.33;1661999;86;20216;-78
2021/04/24 08:16:59;;;;;;;5.65;3.25;;;;;;;11.95;77.25;100206.06;1665996;83;21196;-76
2021/04/24 08:19:27;;;;;;;7.25;3.47;;;;;;;11.77;83.51;100199.50;1680509;85;21364;-76
2021/04/24 08:21:56;;;;;;;5.87;3.20;;;;;;;11.78;84.81;100195.75;1644189;86;21626;-76
2021/04/24 08:24:28;;;;;;;10.68;4.03;;;;;;;11.99;93.23;100191.65;1696327;84;21269;-78
2021/04/24 08:26:56;;;;;;;10.90;3.52;;;;;;;12.37;88.38;100190.41;1685848;83;21187;-78
2021/04/24 08:29:24;;;;;;;7.58;3.25;;;;;;;12.60;82.07;100182.80;1659331;86;21626;-77
2021/04/24 08:31:54;;;;;;;7.62;3.42;;;;;;;12.57;79.54;100199.44;1664438;86;21240;-77
2021/04/24 08:34:24;;;;;;;13.28;4.50;;;;;;;12.75;79.06;100185.07;1664780;86;21181;-78
2021/04/24 08:36:52;;;;;;;7.75;3.58;;;;;;;12.87;71.70;100185.47;1670401;84;21128;-76
2021/04/24 08:39:20;;;;;;;6.85;3.30;;;;;;;13.04;67.09;100182.94;1664653;86;21229;-78
2021/04/24 08:41:48;;;;;;;5.53;3.40;;;;;;;13.16;69.25;100186.06;1666621;86;21168;-76
2021/04/24 08:44:18;;;;;;;5.65;3.10;;;;;;;13.16;68.40;100178.45;1664518;86;21172;-76
2021/04/24 08:46:52;;;;;;;5.42;2.95;;;;;;;12.83;67.77;100185.51;1666983;86;21179;-77
2021/04/24 08:49:22;;;;;;;7.17;3.00;;;;;;;12.40;69.01;100185.99;1664900;86;21154;-79
2021/04/24 08:51:51;;;;;;;6.35;3.10;;;;;;;12.00;72.79;100189.77;1663789;86;21293;-76
2021/04/24 08:54:20;;;;;;;4.95;3.02;;;;;;;11.83;76.02;100190.31;1664541;84;21297;-78
2021/04/24 08:56:48;;;;;;;4.83;3.02;;;;;;;11.63;76.76;100192.59;1691255;84;21164;-79
2021/04/24 08:59:16;;;;;;;4.55;3.10;;;;;;;11.35;78.00;100191.16;1706473;84;21167;-76
2021/04/24 09:01:44;;;;;;;5.95;2.87;;;;;;;11.07;84.00;100194.75;1681972;83;21438;-77
2021/04/24 09:04:18;;;;;;;5.47;3.30;;;;;;;10.88;90.86;100199.98;1669723;84;21144;-75
2021/04/24 09:06:50;;;;;;;6.97;3.40;;;;;;;10.78;91.61;100196.11;1668447;86;21780;-76
2021/04/24 09:09:22;;;;;;;6.03;3.30;;;;;;;10.97;97.83;100190.84;1665122;86;21205;-75
2021/04/24 09:11:51;;;;;;;9.55;3.77;;;;;;;11.31;99.31;100189.78;1741352;81;21529;-79
2021/04/24 09:14:21;;;;;;;8.15;3.98;;;;;;;11.59;89.67;100195.64;1672277;84;21152;-74
2021/04/24 09:16:50;;;;;;;52.73;37.28;;;;;;;11.53;90.96;100199.58;1724521;81;21546;-75
2021/04/24 09:19:34;;;;;;;17.52;9.78;;;;;;;11.32;88.13;100195.55;1737951;81;21164;-79
2021/04/24 09:22:23;;;;;;;9.18;4.12;;;;;;;11.16;83.63;100203.70;1757604;80;21112;-72
2021/04/24 09:24:55;;;;;;;5.83;3.62;;;;;;;11.38;89.78;100206.19;1768715;80;21574;-73
2021/04/24 09:27:43;;;;;;;6.65;3.70;;;;;;;11.73;84.81;100194.08;1766699;80;21532;-73
2021/04/24 09:30:23;;;;;;;7.00;3.50;;;;;;;11.83;78.20;100195.73;1753039;81;21105;-75
2021/04/24 09:32:51;;;;;;;5.53;3.37;;;;;;;11.65;80.84;100198.19;1688734;84;21161;-78
2021/04/24 09:38:01;;;;;;;6.30;3.67;;;;;;;11.84;85.42;100181.17;1850736;76;22931;-76
2021/04/24 09:40:29;;;;;;;4.53;3.12;;;;;;;12.10;70.27;100193.95;1813442;78;21547;-75
2021/04/24 09:43:00;;;;;;;8.68;4.00;;;;;;;12.30;67.23;100178.08;1754792;80;21136;-75
2021/04/24 09:48:22;;;;;;;21.02;10.03;;;;;;;12.46;74.86;100181.19;1689097;83;21136;-83
2021/04/24 09:50:57;;;;;;;5.72;3.20;;;;;;;12.49;71.33;100189.50;1862820;76;22912;-77
2021/04/24 09:53:26;;;;;;;16.60;10.55;;;;;;;12.10;75.03;100193.12;1838845;76;21574;-78
2021/04/24 09:55:54;;;;;;;10.40;4.55;;;;;;;11.99;74.01;100194.84;1869634;76;21097;-80
2021/04/24 09:58:40;;;;;;;15.10;6.42;;;;;;;12.12;80.40;100182.94;1863869;76;21113;-79
2021/04/24 10:01:23;;;;;;;6.53;3.20;;;;;;;12.34;76.22;100193.47;1737831;80;21197;-79
2021/04/24 10:03:54;;;;;;;9.30;3.55;;;;;;;12.25;68.51;100176.92;1716819;83;21279;-74
2021/04/24 10:06:35;;;;;;;8.00;5.40;;;;;;;12.48;71.43;100174.23;1745015;81;21198;-77
2021/04/24 10:09:30;;;;;;;19.37;12.47;;;;;;;12.71;66.25;100180.52;1744958;81;21645;-78
2021/04/24 10:12:05;;;;;;;6.70;3.12;;;;;;;12.95;69.55;100177.78;1735832;81;21104;-81
2021/04/24 10:14:48;;;;;;;7.33;3.40;;;;;;;13.15;67.46;100164.53;1740163;82;21686;-79
2021/04/24 10:17:18;;;;;;;4.75;3.05;;;;;;;13.45;69.64;100169.50;1718783;83;21730;-77
2021/04/24 10:19:47;;;;;;;6.97;3.22;;;;;;;13.54;65.18;100167.02;1744548;82;21174;-73
2021/04/24 10:22:17;;;;;;;7.10;3.70;;;;;;;13.51;61.00;100171.48;1743803;82;21124;-73
2021/04/24 10:24:47;;;;;;;61.15;49.65;;;;;;;13.03;60.72;100169.06;1714758;83;21133;-81
2021/04/24 10:27:16;;;;;;;43.25;33.92;;;;;;;12.60;65.86;100169.24;1727818;81;21714;-78
2021/04/24 10:29:44;;;;;;;11.65;7.58;;;;;;;12.17;71.65;100177.83;1722183;83;21152;-79
2021/04/24 10:32:13;;;;;;;6.33;3.30;;;;;;;11.88;74.66;100188.79;1740907;81;21172;-72
2021/04/24 10:34:41;;;;;;;6.70;3.58;;;;;;;11.61;71.88;100190.05;1729820;81;21093;-73
2021/04/24 10:37:09;;;;;;;6.45;3.27;;;;;;;11.44;74.77;100201.45;1732945;82;21178;-77
2021/04/24 10:39:39;;;;;;;8.03;3.72;;;;;;;11.26;79.73;100202.16;1740771;80;21201;-81
2021/04/24 10:42:24;;;;;;;12.70;7.10;;;;;;;11.09;83.33;100205.41;1737523;80;21166;-77
2021/04/24 10:44:58;;;;;;;11.12;6.90;;;;;;;10.90;90.41;100197.12;1748321;80;21273;-80
2021/04/24 10:47:46;;;;;;;7.67;4.50;;;;;;;10.69;91.42;100198.97;1736361;82;21227;-77
2021/04/24 10:50:41;;;;;;;6.00;3.70;;;;;;;10.71;91.59;100185.63;1852266;77;22822;-84
2021/04/24 10:53:32;;;;;;;7.90;4.15;;;;;;;10.73;96.03;100197.13;1812108;78;21279;-76
2021/04/24 10:56:01;;;;;;;12.33;6.08;;;;;;;10.86;93.94;100195.26;1804677;79;21781;-80
2021/04/24 10:58:30;;;;;;;10.50;4.83;;;;;;;10.86;94.28;100199.83;1801305;79;21271;-77
2021/04/24 11:01:04;;;;;;;8.18;4.62;;;;;;;10.82;98.95;100215.55;1805889;79;21132;-74
2021/04/24 11:03:42;;;;;;;8.43;4.30;;;;;;;10.62;100.00;100195.59;1804482;79;21138;-72
2021/04/24 11:06:15;;;;;;;6.85;4.03;;;;;;;10.37;100.00;100200.61;1794964;79;21252;-75
2021/04/24 11:08:45;;;;;;;;;;;;;;;10.21;100.00;100194.62;1736792;81;21137;-74
2021/04/24 11:11:17;;;;;;;6.13;3.70;;;;;;;10.24;100.00;100205.95;1672463;85;20448;-76
2021/04/24 11:13:56;;;;;;;6.37;3.90;;;;;;;10.47;100.00;100204.53;1741482;82;21634;-74
2021/04/24 11:16:31;;;;;;;8.63;4.17;;;;;;;10.81;99.80;100183.58;1713085;82;21168;-76
2021/04/24 11:18:54;;;;;;;8.10;3.90;;;;;;;11.17;95.60;100183.23;1739925;82;21599;-74
2021/04/24 11:21:29;;;;;;;7.60;3.58;;;;;;;11.48;93.57;100179.77;1744009;82;21161;-76
2021/04/24 11:24:14;;;;;;;9.18;4.17;;;;;;;11.56;87.03;100190.59;1743864;82;21193;-76
2021/04/24 11:26:46;;;;;;;7.03;3.90;;;;;;;11.51;79.52;100199.75;1743867;82;21126;-75
2021/04/24 11:29:17;;;;;;;8.10;3.73;;;;;;;11.15;78.84;100187.12;1744036;82;21164;-76
2021/04/24 11:32:00;;;;;;;11.97;5.08;;;;;;;10.76;94.17;100204.04;1814667;77;22239;-79
2021/04/24 11:34:39;;;;;;;7.15;4.03;;;;;;;10.44;100.00;100213.29;1786363;80;21121;-79
2021/04/24 11:37:24;;;;;;;6.80;3.62;;;;;;;10.15;100.00;100212.35;1776459;80;21744;-78
2021/04/24 11:40:20;;;;;;;11.18;4.70;;;;;;;10.05;100.00;100212.47;1720953;83;21562;-79